Colton, CA (92324)

10:00 AM PDT on May 26, 2015 (GMT -0700)
Loma Linda RF | | Change Station
CLOSE
Current Station
Personal Weather Station
Location: Loma Linda, CA
Elevation: 1160 ft
Nearby Weather Stations

Elev 1160 ft 34.05 °N, 117.26 °W | Updated 2 minutes ago

Overcast
Overcast
63.2 °F
Feels Like 63.2 °F
N
0.9
Wind Variable Wind from West
Gusts 1.6 mph

Today
High -- | Low -- °F
--% Chance of Precip.
Yesterday
High -- | Low -- °F
Precip. -- in
5:41 AM 7:51 PM
First Quarter, 59% visible
Pressure 30.00 in
Visibility 3.0 miles
Clouds Overcast 1700 ft
Dew Point 54 °F
Humidity 73%
Rainfall 0.00 in
Snow Depth Not available.
UV 2 out of 12
Pollen 4.70 out of 12
Air Quality Not available.
Flu Activity Sporadic
METAR KSBD 261647Z 26003KT 3SM HZ OVC017 15/11 A3000

More Conditions Fewer Conditions

Pressure 30.00 in
Visibility 3.0 miles
Clouds Overcast 1700 ft
Dew Point 54 °F
Humidity 73%
Rainfall 0.00 in
Snow Depth Not available.
UV 2 out of 12
Pollen 4.70 out of 12
Air Quality Not available.
Flu Activity Sporadic
METAR KSBD 261647Z 26003KT 3SM HZ OVC017 15/11 A3000

More Conditions Fewer Conditions

10-Day Weather Forecast

Almanac

Astronomy

May. 26, 2015 Rise Set
Actual Time
Civil Twilight
Nautical Twilight
Astronomical Twilight
Moon
Length of Visible Light
Length of Day
Tomorrow will be .
, % of the Moon is Illuminated

Today's Extremes

State Highs State Lows

Community

WunderPhotos

Upload Photos

1,824,372 photos uploaded!

WunderBlogs® & News

Nearby

Air Quality

  Air Quality AQ Index Pollutant
Not available.

Snow Depth

Station Depth Elevation

Earthquake Activity

City Distance Mag. Time & Date
Minimum magnitude displayed is 2.5.

Coastal Water Temperatures

Place Temperature

Stations

Nearby Weather Stations

Station Location Temp. Windchill Dew Point Humidity Wind Precip. Elev Updated Type